Back to top

Laramie, WY weather

Laramie Regional Airport, Laramie, WY: 12/13/2019 00:53
Visibility10 statute milesclear sky
View 7-Day Forecast
Area Summary
Sky/CloudsSky Clear
Weather [last 24 hours]None [snow began 19:01 ended 19:10 ]
Pressure29.92 in.Hg (1013 hPa)
Dew Point18 °F (-7.8 °C)
Relative Humidity 63 %
Last 24-Hour Precip.Trace
Reading TimePrecipitation
6-hr ending 12/12@22:53Trace
Temperature28.9 °F (-1.7 °C)red thermometer
Wind Chill23.8 °F (-4.54 °C)
Reading TimeMinimum to Maximum Temperature
6-hr ending 12/12@22:5328.9 °F to 33.1 °F (-1.7 °C to 0.6 °C)
6-hr ending 12/12@16:5332 °F to 37 °F (0 °C to 2.8 °C)
6-hr ending 12/12@10:5328 °F to 34 °F (-2.2 °C to 1.1 °C)
6-hr ending 12/12@04:5327 °F to 32 °F (-2.8 °C to 0 °C)
24-hr ending 12/12@23:5328 °F to 37 °F (-2.2 °C to 2.8 °C)
Wind4.6 MPH (4 KT) green arrow pointing at 0 degrees
Wind FromNorth (350 Degrees)
Rolling 24-hr Peak Wind50.6 MPH (44 KT) on 12/12@02:06
Rolling 24-hr Peak Wind FromWest (260 Degrees)
Twilight Begins06:48Sunshine Yesterday
Sunrise07:19N/A
Sunset16:36
Twilight Ends17:07
METARKLAR 130753Z AUTO 35004KT 10SM CLR M02/M08 A2992 RMK AO2 SLP123 T10171078
Tags: